createdAt,value
2023-11-29T00:00:54.711Z,79.20
2023-11-29T00:03:24.042Z,79.10
2023-11-29T00:05:51.259Z,79.10
2023-11-29T00:08:20.904Z,79.00
2023-11-29T00:10:48.105Z,78.90
2023-11-29T00:13:15.896Z,78.80
2023-11-29T00:15:42.972Z,78.70
2023-11-29T00:18:10.521Z,78.70
2023-11-29T00:20:37.763Z,78.70
2023-11-29T00:23:07.141Z,78.70
2023-11-29T00:25:34.230Z,78.70
2023-11-29T00:28:01.383Z,78.70
2023-11-29T00:30:30.181Z,78.80
2023-11-29T00:32:59.744Z,78.70
2023-11-29T00:35:27.092Z,78.80
2023-11-29T00:37:56.356Z,78.80
2023-11-29T00:40:23.432Z,78.80
2023-11-29T00:42:53.579Z,78.80
2023-11-29T00:45:26.799Z,78.80
2023-11-29T00:47:54.019Z,78.70
2023-11-29T00:50:21.156Z,78.70
2023-11-29T00:52:48.290Z,78.70
2023-11-29T00:55:22.530Z,78.70
2023-11-29T00:57:53.345Z,78.60
2023-11-29T01:00:20.604Z,78.70
2023-11-29T01:02:50.020Z,78.70
2023-11-29T01:05:17.224Z,78.80
2023-11-29T01:07:46.858Z,78.90
2023-11-29T01:10:16.306Z,78.90
2023-11-29T01:12:43.412Z,78.90
2023-11-29T01:15:10.620Z,78.90
2023-11-29T01:17:39.980Z,78.80
2023-11-29T01:20:09.581Z,78.80
2023-11-29T01:22:37.142Z,78.80
2023-11-29T01:25:04.474Z,78.80
2023-11-29T01:27:31.724Z,78.80
2023-11-29T01:29:59.215Z,78.80
2023-11-29T01:32:28.636Z,78.70
2023-11-29T01:34:55.731Z,78.70
2023-11-29T01:37:22.798Z,78.70
2023-11-29T01:39:50.083Z,78.70
2023-11-29T01:42:19.654Z,78.70
2023-11-29T01:44:47.874Z,78.60
2023-11-29T01:47:19.153Z,78.50
2023-11-29T01:49:46.569Z,78.50
2023-11-29T01:52:15.547Z,78.60
2023-11-29T01:54:44.847Z,78.60
2023-11-29T01:57:13.745Z,78.70
2023-11-29T01:59:41.161Z,78.80
2023-11-29T02:02:08.592Z,78.80
2023-11-29T02:04:35.767Z,78.80
2023-11-29T02:07:03.368Z,78.70
2023-11-29T02:09:32.860Z,78.80
2023-11-29T02:12:01.277Z,78.80
2023-11-29T02:14:28.437Z,78.70
2023-11-29T02:16:58.220Z,78.70
2023-11-29T02:19:25.393Z,78.70
2023-11-29T02:21:52.507Z,78.70
2023-11-29T02:24:25.458Z,78.70
2023-11-29T02:26:52.577Z,78.70
2023-11-29T02:29:19.685Z,78.70
2023-11-29T02:31:46.805Z,78.70
2023-11-29T02:34:13.927Z,78.60
2023-11-29T02:36:41.070Z,78.70
2023-11-29T02:39:10.692Z,78.60
2023-11-29T02:41:42.572Z,78.70
2023-11-29T02:44:09.690Z,78.70
2023-11-29T02:46:36.895Z,78.70
2023-11-29T02:49:05.106Z,78.70
2023-11-29T02:51:32.289Z,78.80
2023-11-29T02:54:01.847Z,78.70
2023-11-29T02:56:31.540Z,78.70
2023-11-29T02:59:00.989Z,78.70
2023-11-29T03:01:30.279Z,78.70
2023-11-29T03:03:57.462Z,78.80
2023-11-29T03:06:24.677Z,78.80
2023-11-29T03:08:51.814Z,78.90
2023-11-29T03:11:21.472Z,78.90
2023-11-29T03:13:50.871Z,79.00
2023-11-29T03:16:18.028Z,79.00
2023-11-29T03:18:47.332Z,78.90
2023-11-29T03:21:15.883Z,78.90
2023-11-29T03:23:43.955Z,78.90
2023-11-29T03:26:11.372Z,78.90
2023-11-29T03:28:41.058Z,78.90
2023-11-29T03:31:08.208Z,78.90
2023-11-29T03:33:35.401Z,78.90
2023-11-29T03:36:02.551Z,79.00
2023-11-29T03:38:29.714Z,78.90
2023-11-29T03:40:59.670Z,78.90
2023-11-29T03:43:26.756Z,78.90
2023-11-29T03:45:55.095Z,78.90
2023-11-29T03:48:24.984Z,79.00
2023-11-29T03:50:54.322Z,78.90
2023-11-29T03:53:21.460Z,78.90
2023-11-29T03:55:48.583Z,78.90
2023-11-29T03:58:15.751Z,78.80
2023-11-29T04:00:44.976Z,78.80
2023-11-29T04:03:12.161Z,78.80
2023-11-29T04:05:39.420Z,78.90
2023-11-29T04:08:06.656Z,78.80
2023-11-29T04:10:35.250Z,78.70
2023-11-29T04:13:02.948Z,78.70
2023-11-29T04:15:32.572Z,78.60
2023-11-29T04:17:59.754Z,78.60
2023-11-29T04:20:29.079Z,78.60
2023-11-29T04:22:58.445Z,78.60
2023-11-29T04:25:25.594Z,78.70
2023-11-29T04:27:52.696Z,78.70
2023-11-29T04:30:21.415Z,78.60
2023-11-29T04:32:49.271Z,78.60
2023-11-29T04:35:16.389Z,78.60
2023-11-29T04:37:43.920Z,78.50
2023-11-29T04:40:11.268Z,78.50
2023-11-29T04:42:38.373Z,78.60
2023-11-29T04:45:05.784Z,78.60
2023-11-29T04:47:32.924Z,78.60
2023-11-29T04:50:00.206Z,78.60
2023-11-29T04:52:29.432Z,78.50
2023-11-29T04:54:58.913Z,78.60
2023-11-29T04:57:28.633Z,78.60
2023-11-29T04:59:55.742Z,78.60
2023-11-29T05:02:23.001Z,78.60
2023-11-29T05:04:50.131Z,78.60
2023-11-29T05:07:17.242Z,78.60
2023-11-29T05:09:44.391Z,78.60
2023-11-29T05:12:11.928Z,78.70
2023-11-29T05:14:39.303Z,78.70
2023-11-29T05:17:06.429Z,78.70
2023-11-29T05:19:33.580Z,78.60
2023-11-29T05:22:00.738Z,78.50
2023-11-29T05:24:27.836Z,78.60
2023-11-29T05:26:55.763Z,78.60
2023-11-29T05:29:22.943Z,78.60
2023-11-29T05:31:50.064Z,78.60
2023-11-29T05:34:17.148Z,78.50
2023-11-29T05:36:44.296Z,78.60
2023-11-29T05:39:13.439Z,78.50
2023-11-29T05:41:42.945Z,78.60
2023-11-29T05:44:14.445Z,78.60
2023-11-29T05:46:42.281Z,78.60
2023-11-29T05:49:14.137Z,78.60
2023-11-29T05:51:43.606Z,78.60
2023-11-29T05:54:11.120Z,78.60
2023-11-29T05:56:38.272Z,78.60
2023-11-29T05:59:07.838Z,78.60
2023-11-29T06:01:34.959Z,78.60
2023-11-29T06:04:02.171Z,78.70
2023-11-29T06:06:29.335Z,78.70
2023-11-29T06:08:56.691Z,78.70
2023-11-29T06:11:30.364Z,78.60
2023-11-29T06:13:57.550Z,78.60
2023-11-29T06:16:26.967Z,78.60
2023-11-29T06:18:54.158Z,78.70
2023-11-29T06:21:21.353Z,78.70
2023-11-29T06:23:48.696Z,78.70
2023-11-29T06:26:19.853Z,78.60
2023-11-29T06:28:49.335Z,78.70
2023-11-29T06:31:16.540Z,78.80
2023-11-29T06:33:43.839Z,78.80
2023-11-29T06:36:11.013Z,78.80
2023-11-29T06:38:38.174Z,78.80
2023-11-29T06:41:07.758Z,78.80
2023-11-29T06:43:35.082Z,78.90
2023-11-29T06:46:06.138Z,78.90
2023-11-29T06:48:35.585Z,79.00
2023-11-29T06:51:05.242Z,79.10
2023-11-29T06:53:35.107Z,79.10
2023-11-29T06:56:02.576Z,79.10
2023-11-29T06:58:29.644Z,79.20
2023-11-29T07:00:56.831Z,79.40
2023-11-29T07:03:27.504Z,79.30
2023-11-29T07:05:58.429Z,79.30
2023-11-29T07:08:25.793Z,79.30
2023-11-29T07:10:55.077Z,79.30
2023-11-29T07:13:24.270Z,79.30
2023-11-29T07:15:57.264Z,79.30
2023-11-29T07:18:27.169Z,79.20
2023-11-29T07:20:54.502Z,79.20
2023-11-29T07:23:23.799Z,79.20
2023-11-29T07:25:50.987Z,79.10
2023-11-29T07:28:18.136Z,79.10
2023-11-29T07:30:45.248Z,79.00
2023-11-29T07:33:12.608Z,79.00
2023-11-29T07:35:39.820Z,78.90
2023-11-29T07:38:07.151Z,79.00
2023-11-29T07:40:34.243Z,79.00
2023-11-29T07:43:05.984Z,79.00
2023-11-29T07:45:33.200Z,78.90
2023-11-29T07:48:00.499Z,79.00
2023-11-29T07:50:27.713Z,78.90
2023-11-29T07:52:54.857Z,78.90
2023-11-29T07:55:21.929Z,78.90
2023-11-29T07:57:49.115Z,78.90
2023-11-29T08:00:16.716Z,79.00
2023-11-29T08:02:44.611Z,79.00
2023-11-29T08:05:14.019Z,79.00
2023-11-29T08:07:43.424Z,79.10
2023-11-29T08:10:10.601Z,79.10
2023-11-29T08:12:37.714Z,79.10
2023-11-29T08:15:05.151Z,79.10
2023-11-29T08:17:34.042Z,79.10
2023-11-29T08:20:01.416Z,79.10
2023-11-29T08:22:30.899Z,79.10
2023-11-29T08:24:57.996Z,79.10
2023-11-29T08:27:25.395Z,79.20
2023-11-29T08:29:53.403Z,79.20
2023-11-29T08:32:20.689Z,79.20
2023-11-29T08:34:47.871Z,79.20
2023-11-29T08:37:17.759Z,79.20
2023-11-29T08:39:44.860Z,79.20
2023-11-29T08:42:12.953Z,79.10
2023-11-29T08:44:43.249Z,79.10
2023-11-29T08:47:10.450Z,79.10
2023-11-29T08:49:37.614Z,79.00
2023-11-29T08:52:08.104Z,79.00
2023-11-29T08:54:35.286Z,79.00
2023-11-29T08:57:02.385Z,79.00
2023-11-29T08:59:29.719Z,78.90
2023-11-29T09:01:56.906Z,79.00
2023-11-29T09:04:26.546Z,79.00
2023-11-29T09:06:54.697Z,78.90
2023-11-29T09:09:21.940Z,78.80
2023-11-29T09:11:49.160Z,78.80
2023-11-29T09:14:16.355Z,78.80
2023-11-29T09:16:43.498Z,78.80
2023-11-29T09:19:13.420Z,78.80
2023-11-29T09:21:40.520Z,78.80
2023-11-29T09:24:07.902Z,78.70
2023-11-29T09:26:37.418Z,78.70
2023-11-29T09:29:04.893Z,78.60
2023-11-29T09:31:32.129Z,78.50
2023-11-29T09:33:59.355Z,78.50
2023-11-29T09:36:28.535Z,78.40
2023-11-29T09:38:55.969Z,78.40
2023-11-29T09:41:23.238Z,78.40
2023-11-29T09:43:50.856Z,78.40
2023-11-29T09:46:18.552Z,78.50
2023-11-29T09:48:46.061Z,78.50
2023-11-29T09:51:13.377Z,78.50
2023-11-29T09:53:40.472Z,78.40
2023-11-29T09:56:08.024Z,78.30
2023-11-29T09:58:35.111Z,78.20
2023-11-29T10:01:04.044Z,78.20
2023-11-29T10:03:31.332Z,78.20
2023-11-29T10:05:58.580Z,78.00
2023-11-29T10:08:28.263Z,77.80
2023-11-29T10:10:58.312Z,77.70
2023-11-29T10:13:27.942Z,77.60
2023-11-29T10:15:56.051Z,77.60
2023-11-29T10:18:23.280Z,77.50
2023-11-29T10:21:00.184Z,77.60
2023-11-29T10:23:36.227Z,77.70
2023-11-29T10:26:03.898Z,77.70
2023-11-29T10:28:31.114Z,77.60
2023-11-29T10:30:58.508Z,77.50
2023-11-29T10:33:29.103Z,77.30
2023-11-29T10:35:56.762Z,77.20
2023-11-29T10:38:24.364Z,76.90
2023-11-29T10:40:53.251Z,76.70
2023-11-29T10:43:24.790Z,76.50
2023-11-29T10:45:55.030Z,76.40
2023-11-29T10:48:25.684Z,76.30
2023-11-29T10:50:53.782Z,76.10
2023-11-29T10:53:21.124Z,75.80
2023-11-29T10:55:51.294Z,75.70
2023-11-29T10:58:22.374Z,75.50
2023-11-29T11:00:49.948Z,75.30
2023-11-29T11:03:35.927Z,75.20
2023-11-29T11:06:22.087Z,75.00
2023-11-29T11:08:50.725Z,74.90
2023-11-29T11:11:37.599Z,74.80
2023-11-29T11:14:06.910Z,74.70
2023-11-29T11:16:37.001Z,74.70
2023-11-29T11:19:07.207Z,74.60
2023-11-29T11:21:34.328Z,74.60
2023-11-29T11:24:01.602Z,74.70
2023-11-29T11:26:31.399Z,74.80
2023-11-29T11:29:00.317Z,74.80
2023-11-29T11:31:31.031Z,74.90
2023-11-29T11:33:58.137Z,74.70
2023-11-29T11:36:27.786Z,74.70
2023-11-29T11:38:55.871Z,74.70
2023-11-29T11:41:23.025Z,74.60
2023-11-29T11:43:55.134Z,74.60
2023-11-29T11:46:24.435Z,74.60
2023-11-29T11:48:53.878Z,74.50
2023-11-29T11:51:21.710Z,74.60
2023-11-29T11:53:49.003Z,74.50
2023-11-29T11:56:19.750Z,74.60
2023-11-29T11:58:47.488Z,74.60
2023-11-29T12:01:17.844Z,74.80
2023-11-29T12:03:45.208Z,74.80
2023-11-29T12:06:13.108Z,74.80
2023-11-29T12:08:42.653Z,74.80
2023-11-29T12:11:09.776Z,74.80
2023-11-29T12:13:37.539Z,74.60
2023-11-29T12:16:15.015Z,74.60
2023-11-29T12:18:42.358Z,74.70
2023-11-29T12:21:09.754Z,74.70
2023-11-29T12:23:43.376Z,74.80
2023-11-29T12:26:14.264Z,74.70
2023-11-29T12:28:43.344Z,74.60
2023-11-29T12:31:11.053Z,74.70
2023-11-29T12:33:40.555Z,74.80
2023-11-29T12:36:09.070Z,74.80
2023-11-29T12:38:36.345Z,74.90
2023-11-29T12:41:03.467Z,74.80
2023-11-29T12:43:33.316Z,74.90
2023-11-29T12:46:02.528Z,74.90
2023-11-29T12:48:30.126Z,74.90
2023-11-29T12:51:02.244Z,74.90
2023-11-29T12:53:29.440Z,74.90
2023-11-29T12:55:56.577Z,74.90
2023-11-29T12:58:23.671Z,74.90
2023-11-29T13:00:50.820Z,74.90
2023-11-29T13:03:20.432Z,74.90
2023-11-29T13:05:47.576Z,74.90
2023-11-29T13:08:17.405Z,74.90
2023-11-29T13:10:46.618Z,74.90
2023-11-29T13:13:14.222Z,74.90
2023-11-29T13:15:41.561Z,74.90
2023-11-29T13:18:08.807Z,74.90
2023-11-29T13:20:36.073Z,74.90
2023-11-29T13:23:03.246Z,75.00
2023-11-29T13:25:32.749Z,74.90
2023-11-29T13:27:59.946Z,74.90
2023-11-29T13:30:27.050Z,74.90
2023-11-29T13:32:54.313Z,74.90
2023-11-29T13:35:21.520Z,74.90
2023-11-29T13:37:50.729Z,74.90
2023-11-29T13:40:18.279Z,74.90
2023-11-29T13:42:46.025Z,74.90
2023-11-29T13:45:13.312Z,74.90
2023-11-29T13:47:41.436Z,74.80
2023-11-29T13:50:08.783Z,74.60
2023-11-29T13:52:36.160Z,74.60
2023-11-29T13:55:03.932Z,74.50
2023-11-29T13:57:33.840Z,74.50
2023-11-29T14:00:06.078Z,74.60
2023-11-29T14:02:34.151Z,74.50
2023-11-29T14:05:01.562Z,74.50
2023-11-29T14:07:28.801Z,74.50
2023-11-29T14:09:55.984Z,74.40
2023-11-29T14:12:23.064Z,75.10
2023-11-29T14:14:50.253Z,74.40
2023-11-29T14:17:17.371Z,74.40
2023-11-29T14:19:46.953Z,74.40
2023-11-29T14:22:14.220Z,74.40
2023-11-29T14:24:41.294Z,74.50
2023-11-29T14:27:08.588Z,74.60
2023-11-29T14:29:38.102Z,74.80
2023-11-29T14:32:05.626Z,74.80
2023-11-29T14:34:32.759Z,74.90
2023-11-29T14:37:02.051Z,74.90
2023-11-29T14:39:29.178Z,75.00
2023-11-29T14:41:56.454Z,74.90
2023-11-29T14:44:23.782Z,75.00
2023-11-29T14:46:53.011Z,75.10
2023-11-29T14:49:26.619Z,75.10
2023-11-29T14:51:56.656Z,75.20
2023-11-29T14:54:23.788Z,75.20
2023-11-29T14:56:50.914Z,75.30
2023-11-29T14:59:18.084Z,75.40
2023-11-29T15:01:45.164Z,75.50
2023-11-29T15:04:12.288Z,75.50
2023-11-29T15:06:41.982Z,75.50
2023-11-29T15:09:10.604Z,75.60
2023-11-29T15:11:40.472Z,75.50
2023-11-29T15:14:07.719Z,75.50
2023-11-29T15:16:37.207Z,75.40
2023-11-29T15:19:04.545Z,75.20
2023-11-29T15:21:32.189Z,75.20
2023-11-29T15:24:01.450Z,75.10
2023-11-29T15:26:28.751Z,75.10
2023-11-29T15:28:55.869Z,75.20
2023-11-29T15:31:23.069Z,75.30
2023-11-29T15:33:50.362Z,75.20
2023-11-29T15:36:17.809Z,75.30
2023-11-29T15:38:45.800Z,75.30
2023-11-29T15:41:15.311Z,75.30
2023-11-29T15:43:42.437Z,75.20
2023-11-29T15:46:11.797Z,75.20
2023-11-29T15:48:39.154Z,75.30
2023-11-29T15:51:06.490Z,74.80
2023-11-29T15:53:35.533Z,75.20
2023-11-29T15:56:05.573Z,75.70
2023-11-29T15:58:32.644Z,75.10
2023-11-29T16:00:59.928Z,75.00
2023-11-29T16:03:27.076Z,75.00
2023-11-29T16:05:58.968Z,74.90
2023-11-29T16:08:26.165Z,74.80
2023-11-29T16:10:53.292Z,74.70
2023-11-29T16:13:22.847Z,74.70
2023-11-29T16:15:49.977Z,74.60
2023-11-29T16:18:17.244Z,74.50
2023-11-29T16:20:45.292Z,74.50
2023-11-29T16:23:12.791Z,74.50
2023-11-29T16:25:39.951Z,74.50
2023-11-29T16:28:07.564Z,74.50
2023-11-29T16:30:37.055Z,74.40
2023-11-29T16:33:05.567Z,74.40
2023-11-29T16:35:32.937Z,74.40
2023-11-29T16:38:00.229Z,74.40
2023-11-29T16:40:27.323Z,74.30
2023-11-29T16:42:56.543Z,74.30
2023-11-29T16:45:26.430Z,74.90
2023-11-29T16:47:56.288Z,74.20
2023-11-29T16:50:25.734Z,74.20
2023-11-29T16:52:52.943Z,74.30
2023-11-29T16:55:20.087Z,74.30
2023-11-29T16:57:47.478Z,74.30
2023-11-29T17:00:15.011Z,74.30
2023-11-29T17:02:42.202Z,74.30
2023-11-29T17:05:09.449Z,74.50
2023-11-29T17:07:36.549Z,74.60
2023-11-29T17:10:03.972Z,74.80
2023-11-29T17:12:31.144Z,74.90
2023-11-29T17:14:58.258Z,74.80
2023-11-29T17:17:25.417Z,74.70
2023-11-29T17:19:52.596Z,74.70
2023-11-29T17:22:21.586Z,74.70
2023-11-29T17:24:48.835Z,74.60
2023-11-29T17:27:18.089Z,74.80
2023-11-29T17:29:49.853Z,74.60
2023-11-29T17:32:16.982Z,74.70
2023-11-29T17:34:45.186Z,74.70
2023-11-29T17:37:16.217Z,74.80
2023-11-29T17:39:43.707Z,74.90
2023-11-29T17:42:13.352Z,75.00
2023-11-29T17:44:43.142Z,75.00
2023-11-29T17:47:10.521Z,75.10
2023-11-29T17:49:37.700Z,74.90
2023-11-29T17:52:04.955Z,74.90
2023-11-29T17:54:32.099Z,74.80
2023-11-29T17:57:01.674Z,74.70
